Time;durP1;ratioP1;P1;durP2;ratioP2;P2;SDS_P1;SDS_P2;PMS_P1;PMS_P2;Temp;Humidity;BMP_temperature;BMP_pressure;BME280_temperature;BME280_humidity;BME280_pressure;Samples;Min_cycle;Max_cycle;Signal;HPM_P1;HPM_P2
2023/08/01 00:02:11;;;;;;;0.13;0.13;;;;;;;18.60;60.20;99157.59;4424053;32;20095;-91
2023/08/01 00:04:36;;;;;;;0.03;0.03;;;;;;;18.66;60.20;99164.25;4424544;32;20434;-90
2023/08/01 00:07:02;;;;;;;1.77;0.57;;;;;;;18.51;60.20;99154.81;4436659;32;20093;-89
2023/08/01 00:09:27;;;;;;;0.00;0.00;;;;;;;18.43;60.19;99158.00;4437695;32;20105;-89
2023/08/01 00:11:52;;;;;;;0.00;0.00;;;;;;;18.41;60.19;99152.00;4424403;32;20143;-89
2023/08/01 00:14:20;;;;;;;0.25;0.25;;;;;;;18.65;60.21;99168.69;4424189;32;20149;-88
2023/08/01 00:16:45;;;;;;;0.00;0.00;;;;;;;18.40;60.20;99155.59;4411441;32;20097;-89
2023/08/01 00:19:12;;;;;;;0.00;0.00;;;;;;;18.39;60.20;99153.91;4424108;32;20137;-89
2023/08/01 00:21:37;;;;;;;0.00;0.00;;;;;;;18.27;60.18;99155.69;4434149;32;20102;-89
2023/08/01 00:24:07;;;;;;;0.08;0.08;;;;;;;18.37;60.20;99159.31;4438836;32;20092;-91
2023/08/01 00:26:32;;;;;;;0.40;0.40;;;;;;;18.63;60.21;99159.19;4423159;32;20466;-90
2023/08/01 00:28:58;;;;;;;0.00;0.00;;;;;;;18.35;60.18;99161.22;4424380;32;20089;-90
2023/08/01 00:31:25;;;;;;;0.20;0.20;;;;;;;18.41;60.19;99160.75;4423657;32;20085;-89
2023/08/01 00:33:50;;;;;;;0.13;0.13;;;;;;;18.59;60.20;99153.28;4410928;32;20173;-90
2023/08/01 00:36:16;;;;;;;0.10;0.10;;;;;;;18.66;60.20;99151.06;4437424;32;20141;-91
2023/08/01 00:38:43;;;;;;;0.35;0.35;;;;;;;18.22;60.18;99162.25;4410106;32;20093;-91
2023/08/01 00:41:09;;;;;;;0.00;0.00;;;;;;;18.08;60.18;99153.53;4398231;32;20101;-91
2023/08/01 00:43:34;;;;;;;0.00;0.00;;;;;;;18.19;60.18;99146.63;4410923;32;20224;-90
2023/08/01 00:46:03;;;;;;;0.03;0.03;;;;;;;18.33;60.19;99141.22;4423134;32;20114;-89
2023/08/01 00:48:29;;;;;;;0.17;0.15;;;;;;;18.40;60.19;99137.16;4407957;32;20081;-90
2023/08/01 00:50:56;;;;;;;1.95;0.95;;;;;;;18.44;60.19;99137.75;4410590;32;20098;-90
2023/08/01 00:53:22;;;;;;;0.00;0.00;;;;;;;18.36;60.18;99131.28;4423026;32;20105;-90
2023/08/01 00:55:48;;;;;;;0.00;0.00;;;;;;;18.42;60.19;99127.34;4398019;32;20128;-89
2023/08/01 00:58:13;;;;;;;0.00;0.00;;;;;;;18.14;60.17;99120.62;4410269;32;20093;-90
2023/08/01 01:00:39;;;;;;;0.00;0.00;;;;;;;18.33;60.18;99125.41;4415722;32;20123;-90
2023/08/01 01:03:05;;;;;;;0.00;0.00;;;;;;;18.21;60.18;99121.00;4420276;32;20164;-91
2023/08/01 01:05:33;;;;;;;0.00;0.00;;;;;;;18.14;60.17;99112.72;4410779;32;20101;-91
2023/08/01 01:07:58;;;;;;;2.37;0.95;;;;;;;18.35;60.18;99110.31;4410524;32;20103;-90
2023/08/01 01:10:24;;;;;;;0.00;0.00;;;;;;;18.30;60.18;99105.38;4420095;32;20121;-90
2023/08/01 01:12:50;;;;;;;0.10;0.10;;;;;;;18.15;60.17;99110.94;4417775;32;20155;-90
2023/08/01 01:15:16;;;;;;;0.00;0.00;;;;;;;18.09;60.18;99117.50;4422827;32;20165;-90
2023/08/01 01:17:41;;;;;;;0.00;0.00;;;;;;;18.03;60.17;99123.22;4422931;32;20101;-90
2023/08/01 01:20:07;;;;;;;0.00;0.00;;;;;;;18.15;60.17;99119.69;4410244;32;20120;-90
2023/08/01 01:22:33;;;;;;;0.00;0.00;;;;;;;18.15;60.17;99118.84;4397611;32;20457;-90
2023/08/01 01:24:59;;;;;;;0.08;0.08;;;;;;;18.28;60.18;99115.19;4422815;32;20146;-90
2023/08/01 01:27:24;;;;;;;0.00;0.00;;;;;;;18.30;60.18;99112.44;4410262;32;20085;-89
2023/08/01 01:29:50;;;;;;;1.27;0.80;;;;;;;18.06;60.17;99110.66;4422810;32;20081;-90
2023/08/01 01:32:15;;;;;;;0.00;0.00;;;;;;;17.97;60.16;99106.03;4410001;32;20220;-90
2023/08/01 01:34:40;;;;;;;0.30;0.30;;;;;;;17.96;60.16;99106.16;4422621;32;20132;-90
2023/08/01 01:37:06;;;;;;;0.13;0.13;;;;;;;17.93;60.17;99101.97;4421933;32;20085;-90
2023/08/01 01:39:31;;;;;;;0.35;0.35;;;;;;;17.93;60.17;99101.13;4424743;32;20138;-90
2023/08/01 01:41:57;;;;;;;0.08;0.08;;;;;;;17.83;60.15;99100.97;4412559;32;20129;-90
2023/08/01 01:44:22;;;;;;;0.00;0.00;;;;;;;17.77;60.16;99102.25;4424735;32;20133;-91
2023/08/01 01:46:49;;;;;;;0.55;0.55;;;;;;;17.78;60.16;99097.81;4424432;32;25740;-91
2023/08/01 01:49:14;;;;;;;0.00;0.00;;;;;;;17.70;60.15;99095.72;4412056;32;20097;-91
2023/08/01 01:51:40;;;;;;;0.15;0.15;;;;;;;17.79;60.16;99094.22;4424249;32;20136;-90
2023/08/01 01:54:05;;;;;;;0.00;0.00;;;;;;;17.67;60.15;99105.59;4424791;32;20494;-90
2023/08/01 01:56:31;;;;;;;0.00;0.00;;;;;;;17.68;60.15;99102.03;4438999;32;20085;-90
2023/08/01 01:58:56;;;;;;;0.00;0.00;;;;;;;17.70;60.15;99092.25;4412131;32;20100;-89
2023/08/01 02:01:21;;;;;;;1.30;0.73;;;;;;;17.67;60.15;99088.03;4424571;32;20145;-89
2023/08/01 02:03:47;;;;;;;0.00;0.00;;;;;;;17.84;60.15;99084.22;4424504;32;20115;-90
2023/08/01 02:06:12;;;;;;;0.00;0.00;;;;;;;18.03;60.17;99086.34;4424563;32;20160;-89
2023/08/01 02:08:38;;;;;;;0.00;0.00;;;;;;;17.51;60.14;99076.91;4424587;32;20124;-89
2023/08/01 02:11:03;;;;;;;0.00;0.00;;;;;;;17.50;60.14;99077.84;4412168;32;20141;-90
2023/08/01 02:13:29;;;;;;;0.00;0.00;;;;;;;17.48;60.14;99074.47;4424641;32;20127;-90
2023/08/01 02:15:54;;;;;;;0.00;0.00;;;;;;;17.41;60.14;99074.09;4424431;32;20123;-90
2023/08/01 02:18:20;;;;;;;0.00;0.00;;;;;;;17.35;60.14;99076.31;4425082;32;20142;-90
2023/08/01 02:20:45;;;;;;;0.05;0.05;;;;;;;17.47;60.15;99075.44;4412030;32;20101;-90
2023/08/01 02:23:11;;;;;;;0.28;0.28;;;;;;;17.52;60.14;99070.69;4411217;32;25461;-90
2023/08/01 02:25:40;;;;;;;0.03;0.03;;;;;;;17.36;60.13;99076.19;4411818;32;20097;-89
2023/08/01 02:28:05;;;;;;;0.00;0.00;;;;;;;17.18;60.12;99070.44;4408494;32;20086;-90
2023/08/01 02:30:31;;;;;;;3.60;0.57;;;;;;;17.24;60.12;99073.56;4406155;32;20108;-90
2023/08/01 02:32:56;;;;;;;0.10;0.10;;;;;;;17.45;60.13;99070.28;4424504;32;20832;-91
2023/08/01 02:35:21;;;;;;;0.00;0.00;;;;;;;17.21;60.12;99068.53;4425366;32;20482;-89
2023/08/01 02:37:47;;;;;;;0.00;0.00;;;;;;;17.25;60.12;99065.56;4433652;32;20157;-92
2023/08/01 02:40:12;;;;;;;0.00;0.00;;;;;;;17.22;60.12;99065.78;4425465;32;20188;-91
2023/08/01 02:42:38;;;;;;;0.00;0.00;;;;;;;17.17;60.13;99060.03;4411861;32;20188;-91
2023/08/01 02:45:04;;;;;;;0.00;0.00;;;;;;;17.05;60.12;99063.53;4425032;32;20382;-91
2023/08/01 02:47:29;;;;;;;0.43;0.43;;;;;;;17.08;60.12;99065.94;4424920;32;20829;-92
2023/08/01 02:49:55;;;;;;;0.00;0.00;;;;;;;17.03;60.12;99074.13;4411238;32;24676;-91
2023/08/01 02:52:20;;;;;;;0.00;0.00;;;;;;;17.01;60.12;99067.28;4437704;32;20089;-90
2023/08/01 02:54:45;;;;;;;0.30;0.30;;;;;;;17.09;60.12;99067.62;4424498;32;20229;-89
2023/08/01 02:57:11;;;;;;;0.00;0.00;;;;;;;17.03;60.12;99068.03;4434846;32;20109;-91
2023/08/01 02:59:36;;;;;;;3.28;0.60;;;;;;;17.13;60.12;99061.19;4409406;32;20332;-90
2023/08/01 03:02:02;;;;;;;1.73;0.30;;;;;;;17.32;60.13;99058.13;4423018;32;20172;-91
2023/08/01 03:04:27;;;;;;;0.37;0.37;;;;;;;17.26;60.13;99059.38;4422862;32;20120;-90
2023/08/01 03:06:53;;;;;;;0.00;0.00;;;;;;;17.12;60.12;99059.50;4435729;32;20093;-91
2023/08/01 03:09:18;;;;;;;0.00;0.00;;;;;;;17.03;60.12;99057.50;4423117;32;20114;-90
2023/08/01 03:11:43;;;;;;;1.37;1.10;;;;;;;17.04;60.12;99056.59;4410773;32;20231;-90
2023/08/01 03:14:09;;;;;;;0.00;0.00;;;;;;;17.17;60.13;99060.03;4422475;32;28073;-90
2023/08/01 03:16:34;;;;;;;0.00;0.00;;;;;;;17.17;60.13;99057.41;4423228;32;20129;-91
2023/08/01 03:19:04;;;;;;;0.22;0.13;;;;;;;17.19;60.12;99058.13;4410286;32;20135;-92
2023/08/01 03:21:32;;;;;;;0.00;0.00;;;;;;;17.13;60.12;99055.94;4423428;32;20439;-90
2023/08/01 03:23:57;;;;;;;0.57;0.30;;;;;;;17.00;60.11;99060.34;4410476;32;20093;-90
2023/08/01 03:26:22;;;;;;;1.17;0.45;;;;;;;17.08;60.12;99055.41;4410348;32;20176;-90
2023/08/01 03:28:48;;;;;;;0.00;0.00;;;;;;;17.08;60.12;99048.37;4410994;32;20128;-91
2023/08/01 03:31:13;;;;;;;0.22;0.22;;;;;;;17.12;60.12;99047.19;4423565;32;20132;-91
2023/08/01 03:33:39;;;;;;;0.05;0.05;;;;;;;17.04;60.12;99046.91;4410437;32;20559;-91
2023/08/01 03:36:04;;;;;;;0.43;0.32;;;;;;;17.08;60.12;99047.53;4422906;32;20116;-91
2023/08/01 03:38:30;;;;;;;0.00;0.00;;;;;;;17.20;60.12;99049.28;4397563;32;20141;-90
2023/08/01 03:40:55;;;;;;;0.00;0.00;;;;;;;17.26;60.13;99050.63;4397721;32;20495;-90
2023/08/01 03:43:23;;;;;;;0.08;0.05;;;;;;;17.40;60.14;99046.09;4397518;32;20081;-90
2023/08/01 03:45:51;;;;;;;0.00;0.00;;;;;;;17.44;60.13;99044.91;4398653;32;20104;-89
2023/08/01 03:48:17;;;;;;;0.03;0.03;;;;;;;17.37;60.13;99037.56;4398158;32;20162;-90
2023/08/01 03:50:42;;;;;;;0.00;0.00;;;;;;;17.45;60.13;99038.69;4422965;32;20123;-90
2023/08/01 03:53:08;;;;;;;0.03;0.03;;;;;;;17.34;60.13;99041.28;4397400;32;20163;-90
2023/08/01 03:55:33;;;;;;;0.00;0.00;;;;;;;17.55;60.13;99038.06;4397078;32;21353;-89
2023/08/01 03:57:58;;;;;;;0.22;0.08;;;;;;;17.62;60.15;99039.28;4397263;32;20159;-90
2023/08/01 04:00:24;;;;;;;0.10;0.10;;;;;;;17.74;60.15;99041.06;4422257;32;23817;-92
2023/08/01 04:02:49;;;;;;;0.25;0.10;;;;;;;17.81;60.16;99044.94;4396320;32;20094;-91
2023/08/01 04:05:15;;;;;;;0.08;0.08;;;;;;;17.93;60.17;99032.66;4385425;32;20097;-91
2023/08/01 04:07:40;;;;;;;0.00;0.00;;;;;;;18.27;60.17;99031.00;4397693;32;20094;-91
2023/08/01 04:10:06;;;;;;;2.05;0.75;;;;;;;18.12;60.17;99033.00;4397179;32;20136;-92
2023/08/01 04:12:32;;;;;;;0.28;0.28;;;;;;;18.04;60.17;99033.56;4397545;32;20090;-91
2023/08/01 04:14:58;;;;;;;7.68;0.93;;;;;;;18.28;60.18;99025.63;4397507;32;20160;-90
2023/08/01 04:17:23;;;;;;;10.95;0.62;;;;;;;18.30;60.17;99023.72;4397065;32;20098;-89
2023/08/01 04:19:48;;;;;;;0.20;0.20;;;;;;;18.28;60.17;99022.16;4409559;32;20142;-89
2023/08/01 04:22:14;;;;;;;0.00;0.00;;;;;;;18.41;60.19;99030.78;4396422;32;20187;-89
2023/08/01 04:24:39;;;;;;;0.20;0.20;;;;;;;18.33;60.18;99033.19;4397076;32;20120;-89
2023/08/01 04:27:05;;;;;;;0.00;0.00;;;;;;;18.44;60.19;99027.94;4423412;32;20187;-90
2023/08/01 04:29:30;;;;;;;0.00;0.00;;;;;;;18.57;60.20;99018.16;4397046;32;20101;-90
2023/08/01 04:31:56;;;;;;;0.10;0.10;;;;;;;18.66;60.20;99025.37;4408944;32;20098;-89
2023/08/01 04:34:22;;;;;;;0.15;0.15;;;;;;;18.75;60.20;99026.47;4423425;32;20137;-90
2023/08/01 04:36:47;;;;;;;0.20;0.20;;;;;;;18.77;60.20;99023.72;4398805;32;20128;-90
2023/08/01 04:39:12;;;;;;;0.20;0.20;;;;;;;18.83;60.21;99025.87;4421990;32;20153;-90
2023/08/01 04:41:38;;;;;;;0.00;0.00;;;;;;;18.89;60.21;99020.97;4435054;32;20125;-90
2023/08/01 04:44:03;;;;;;;0.00;0.00;;;;;;;18.84;60.21;99014.38;4434819;32;20150;-90
2023/08/01 04:46:29;;;;;;;0.32;0.32;;;;;;;19.10;60.22;99012.31;4421926;32;20435;-90
2023/08/01 04:48:54;;;;;;;0.40;0.32;;;;;;;18.97;60.21;99012.47;4422049;32;20537;-90
2023/08/01 04:51:19;;;;;;;1.17;0.43;;;;;;;19.09;60.21;99010.66;4434891;32;20388;-90
2023/08/01 04:53:45;;;;;;;0.20;0.20;;;;;;;19.15;60.22;99011.00;4421449;32;20124;-90
2023/08/01 04:56:10;;;;;;;0.13;0.13;;;;;;;19.34;60.24;99005.09;4421803;32;20145;-90
2023/08/01 04:58:36;;;;;;;0.10;0.10;;;;;;;19.38;60.24;99003.91;4421947;32;20127;-91
2023/08/01 05:01:01;;;;;;;0.00;0.00;;;;;;;19.46;60.25;98996.22;4423278;32;20136;-89
2023/08/01 05:03:27;;;;;;;0.00;0.00;;;;;;;19.57;60.25;99001.50;4423191;32;20415;-88
2023/08/01 05:05:52;;;;;;;0.00;0.00;;;;;;;19.80;60.26;98993.50;4408992;32;20121;-88
2023/08/01 05:08:17;;;;;;;0.30;0.30;;;;;;;19.90;60.27;98994.44;4409166;32;20163;-88
2023/08/01 05:10:43;;;;;;;1.42;1.10;;;;;;;20.14;60.27;98987.13;4423201;32;20454;-88
2023/08/01 05:13:08;;;;;;;0.57;0.55;;;;;;;20.37;60.29;98995.78;4421814;32;22791;-87
2023/08/01 05:15:34;;;;;;;0.32;0.32;;;;;;;20.30;60.28;98991.94;4424870;32;20536;-88
2023/08/01 05:17:59;;;;;;;0.00;0.00;;;;;;;20.48;60.30;98992.25;4425447;32;20117;-88
2023/08/01 05:20:30;;;;;;;1.20;1.10;;;;;;;20.68;60.30;98986.09;4423944;32;20104;-88
2023/08/01 05:22:57;;;;;;;0.00;0.00;;;;;;;20.71;60.31;98987.63;4424039;32;20116;-88
2023/08/01 05:25:22;;;;;;;0.90;0.88;;;;;;;20.78;60.30;98981.66;4423858;32;20525;-87
2023/08/01 05:27:48;;;;;;;0.00;0.00;;;;;;;20.79;60.32;98985.16;4423825;32;20121;-88
2023/08/01 05:30:14;;;;;;;0.00;0.00;;;;;;;20.90;60.31;98989.53;4435879;32;28296;-88
2023/08/01 05:32:40;;;;;;;0.13;0.13;;;;;;;21.26;60.34;98978.41;4423882;32;20108;-88
2023/08/01 05:35:06;;;;;;;0.00;0.00;;;;;;;21.26;60.34;98989.00;4424016;32;20106;-88
2023/08/01 05:37:32;;;;;;;0.10;0.10;;;;;;;21.28;60.34;98986.19;4423731;32;20172;-88
2023/08/01 05:39:57;;;;;;;0.08;0.08;;;;;;;21.42;60.34;98994.59;4423791;32;20131;-88
2023/08/01 05:42:22;;;;;;;8.70;0.95;;;;;;;21.79;60.35;98987.84;4436940;32;20078;-88
2023/08/01 05:44:48;;;;;;;1.55;0.88;;;;;;;21.87;60.37;98983.50;4423646;32;20110;-89
2023/08/01 05:47:13;;;;;;;0.30;0.30;;;;;;;21.79;60.35;98982.53;4423825;32;20131;-88
2023/08/01 05:49:41;;;;;;;0.20;0.20;;;;;;;21.90;60.37;98982.41;4411038;32;20123;-88
2023/08/01 05:52:06;;;;;;;0.13;0.13;;;;;;;21.93;60.37;98976.81;4423826;32;20093;-87
2023/08/01 05:54:32;;;;;;;1.12;1.02;;;;;;;22.11;60.38;98972.53;4436499;32;20159;-88
2023/08/01 05:56:57;;;;;;;0.00;0.00;;;;;;;22.34;60.40;98973.06;4410822;32;20105;-89
2023/08/01 05:59:23;;;;;;;0.20;0.20;;;;;;;22.47;60.40;98978.88;4410737;32;20141;-88
2023/08/01 06:01:48;;;;;;;0.20;0.20;;;;;;;22.66;60.41;98980.63;4423413;32;20403;-88
2023/08/01 06:04:14;;;;;;;0.00;0.00;;;;;;;22.57;60.39;98976.22;4423528;32;20149;-89
2023/08/01 06:06:39;;;;;;;0.03;0.03;;;;;;;22.82;60.42;98977.41;4423174;32;20150;-88
2023/08/01 06:09:04;;;;;;;0.00;0.00;;;;;;;22.82;60.42;98988.03;4423744;32;20141;-88
2023/08/01 06:11:30;;;;;;;0.00;0.00;;;;;;;22.79;60.42;98983.81;4423944;32;20077;-88
2023/08/01 06:13:55;;;;;;;0.60;0.30;;;;;;;22.99;60.43;98979.31;4423525;32;20174;-88
2023/08/01 06:16:21;;;;;;;5.25;1.45;;;;;;;23.03;60.42;98980.69;4436328;32;20140;-88
2023/08/01 06:18:46;;;;;;;0.10;0.10;;;;;;;23.35;60.44;98976.72;4436168;32;20366;-88
2023/08/01 06:21:12;;;;;;;0.32;0.32;;;;;;;23.60;60.46;98985.81;4423420;32;20078;-89
2023/08/01 06:23:37;;;;;;;0.00;0.00;;;;;;;23.84;60.47;98980.75;4423280;32;20173;-89
2023/08/01 06:26:02;;;;;;;0.00;0.00;;;;;;;23.86;60.47;98974.28;4422427;32;20480;-88
2023/08/01 06:28:28;;;;;;;0.00;0.00;;;;;;;24.00;60.47;98964.13;4410549;32;20154;-89
2023/08/01 06:30:53;;;;;;;0.08;0.08;;;;;;;24.16;60.48;98965.09;4410606;32;20184;-89
2023/08/01 06:33:19;;;;;;;0.00;0.00;;;;;;;24.29;60.48;98969.19;4436168;32;20110;-89
2023/08/01 06:35:44;;;;;;;0.10;0.10;;;;;;;24.47;60.50;98970.00;4423448;32;20140;-88
2023/08/01 06:38:09;;;;;;;0.32;0.32;;;;;;;24.75;60.51;98960.84;4423075;32;20162;-88
2023/08/01 06:40:35;;;;;;;0.08;0.08;;;;;;;24.96;60.53;98955.13;4423163;32;20153;-89
2023/08/01 06:43:00;;;;;;;0.00;0.00;;;;;;;25.10;60.53;98951.06;4436064;32;20126;-88
2023/08/01 06:45:26;;;;;;;0.10;0.10;;;;;;;25.20;60.54;98953.59;4423228;32;20442;-89
2023/08/01 06:47:51;;;;;;;0.10;0.10;;;;;;;25.22;60.54;98951.59;4423016;32;26869;-88
2023/08/01 06:50:17;;;;;;;0.00;0.00;;;;;;;25.56;60.56;98951.53;4423203;32;20110;-88
2023/08/01 06:52:42;;;;;;;0.10;0.10;;;;;;;25.73;60.57;98942.56;4423206;32;20118;-88
2023/08/01 06:55:08;;;;;;;0.00;0.00;;;;;;;25.86;60.58;98945.59;4435782;32;20164;-88
2023/08/01 06:57:33;;;;;;;0.57;0.32;;;;;;;26.19;60.59;98941.06;4423244;32;20101;-88
2023/08/01 06:59:58;;;;;;;0.10;0.10;;;;;;;26.24;60.59;98944.06;4423247;32;20372;-88
2023/08/01 07:02:25;;;;;;;0.00;0.00;;;;;;;26.54;60.60;98941.72;4423146;32;20491;-89
2023/08/01 07:04:50;;;;;;;0.00;0.00;;;;;;;26.60;60.61;98936.53;4436000;32;20133;-88
2023/08/01 07:07:16;;;;;;;0.28;0.22;;;;;;;26.71;60.61;98939.81;4424259;32;20133;-88
2023/08/01 07:09:41;;;;;;;0.40;0.40;;;;;;;26.81;60.62;98924.47;4436078;32;20105;-88
2023/08/01 07:12:07;;;;;;;0.00;0.00;;;;;;;27.01;60.63;98928.41;4422811;32;20459;-89
2023/08/01 07:14:32;;;;;;;0.22;0.22;;;;;;;27.24;60.64;98920.47;4423300;32;20110;-89
2023/08/01 07:16:58;;;;;;;0.43;0.43;;;;;;;27.19;60.64;98928.16;4423031;32;20141;-89
2023/08/01 07:19:23;;;;;;;1.37;0.35;;;;;;;27.27;60.64;98922.78;4435865;32;20162;-88
2023/08/01 07:21:49;;;;;;;0.10;0.10;;;;;;;27.34;60.64;98925.56;4435847;32;20437;-88
2023/08/01 07:24:14;;;;;;;0.10;0.10;;;;;;;27.51;60.66;98930.66;4424520;32;20183;-88
2023/08/01 07:26:40;;;;;;;0.55;0.55;;;;;;;27.79;60.67;98919.44;4423066;32;20098;-89
2023/08/01 07:29:08;;;;;;;0.00;0.00;;;;;;;27.80;60.67;98923.78;4410289;32;20110;-87
2023/08/01 07:31:33;;;;;;;4.00;1.27;;;;;;;27.95;60.67;98926.50;4435671;32;20113;-89
2023/08/01 07:33:59;;;;;;;0.20;0.20;;;;;;;28.03;60.68;98923.75;4423023;32;20132;-89
2023/08/01 07:36:24;;;;;;;0.10;0.10;;;;;;;28.01;60.68;98918.59;4409766;32;20089;-89
2023/08/01 07:38:50;;;;;;;0.05;0.05;;;;;;;28.27;60.70;98910.19;4410465;32;20160;-89
2023/08/01 07:41:15;;;;;;;0.30;0.30;;;;;;;28.34;60.70;98916.47;4397670;32;20149;-89
2023/08/01 07:43:40;;;;;;;0.10;0.10;;;;;;;28.42;60.71;98912.88;4397584;32;20356;-89
2023/08/01 07:46:08;;;;;;;0.00;0.00;;;;;;;28.69;60.72;98908.75;4397400;32;20374;-89
2023/08/01 07:48:34;;;;;;;1.45;1.12;;;;;;;28.67;60.72;98900.06;4385357;32;20089;-89
2023/08/01 07:51:00;;;;;;;0.00;0.00;;;;;;;29.00;60.73;98897.81;4397708;32;20183;-89
2023/08/01 07:53:25;;;;;;;0.00;0.00;;;;;;;28.99;60.73;98888.13;4384974;32;20470;-89
2023/08/01 07:55:52;;;;;;;0.00;0.00;;;;;;;29.14;60.74;98880.91;4409747;32;20153;-88
2023/08/01 07:58:17;;;;;;;0.30;0.30;;;;;;;29.28;60.75;98892.56;4397721;32;20090;-89
2023/08/01 08:00:43;;;;;;;0.10;0.10;;;;;;;29.40;60.75;98882.19;4410247;32;20460;-89
2023/08/01 08:03:08;;;;;;;0.00;0.00;;;;;;;29.53;60.76;98874.31;4397500;32;20172;-89
2023/08/01 08:05:38;;;;;;;0.10;0.10;;;;;;;29.59;60.77;98870.88;4397456;32;20400;-89
2023/08/01 08:08:03;;;;;;;0.32;0.32;;;;;;;29.58;60.77;98875.41;4410469;32;20210;-89
2023/08/01 08:10:29;;;;;;;1.40;0.93;;;;;;;29.78;60.78;98875.56;4409890;32;20110;-89
2023/08/01 08:12:54;;;;;;;0.17;0.17;;;;;;;29.85;60.77;98881.84;4397435;32;20149;-89
2023/08/01 08:15:20;;;;;;;1.00;0.80;;;;;;;29.90;60.79;98871.34;4384425;32;20153;-89
2023/08/01 08:17:45;;;;;;;0.30;0.30;;;;;;;29.97;60.79;98878.59;4396883;32;28300;-89
2023/08/01 08:20:10;;;;;;;0.10;0.10;;;;;;;30.10;60.79;98868.03;4396864;32;20130;-89
2023/08/01 08:22:36;;;;;;;0.00;0.00;;;;;;;30.09;60.79;98872.56;4422236;32;20098;-89
2023/08/01 08:25:01;;;;;;;1.62;0.55;;;;;;;30.07;60.79;98876.47;4409310;32;24016;-89
2023/08/01 08:27:27;;;;;;;4.07;0.17;;;;;;;30.27;60.80;98864.00;4397162;32;20106;-89
2023/08/01 08:29:52;;;;;;;0.62;0.13;;;;;;;30.40;60.81;98869.44;4397021;32;20142;-89
2023/08/01 08:32:17;;;;;;;0.05;0.03;;;;;;;30.69;60.82;98862.19;4422439;32;20101;-89
2023/08/01 08:34:43;;;;;;;0.65;0.65;;;;;;;30.87;60.83;98862.47;4409240;32;23521;-89
2023/08/01 08:37:08;;;;;;;0.05;0.05;;;;;;;30.82;60.82;98860.41;4409502;32;20143;-89
2023/08/01 08:39:34;;;;;;;0.65;0.65;;;;;;;30.99;60.83;98857.34;4384358;32;20106;-89
2023/08/01 08:41:59;;;;;;;0.10;0.10;;;;;;;31.22;60.85;98855.16;4409027;32;23730;-89
2023/08/01 08:44:24;;;;;;;0.22;0.22;;;;;;;31.20;60.84;98859.91;4422200;32;20158;-89
2023/08/01 08:46:53;;;;;;;0.10;0.10;;;;;;;31.39;60.85;98856.44;4423416;32;20139;-87
2023/08/01 08:49:20;;;;;;;0.33;0.33;;;;;;;31.65;60.87;98850.28;4411190;32;20129;-87
2023/08/01 08:51:45;;;;;;;0.00;0.00;;;;;;;31.86;60.88;98849.28;4424279;32;20110;-87
2023/08/01 08:54:11;;;;;;;0.00;0.00;;;;;;;31.84;60.88;98843.28;4424017;32;20093;-87
2023/08/01 08:56:37;;;;;;;0.47;0.35;;;;;;;31.96;60.89;98849.69;4424115;32;20437;-87
2023/08/01 08:59:03;;;;;;;0.20;0.20;;;;;;;32.09;60.90;98837.25;4398922;32;20113;-86
2023/08/01 09:01:31;;;;;;;0.00;0.00;;;;;;;32.12;60.90;98834.97;4398841;32;20141;-86
2023/08/01 09:03:57;;;;;;;0.20;0.08;;;;;;;32.21;60.90;98822.13;4399149;32;20580;-85
2023/08/01 09:06:28;;;;;;;0.17;0.17;;;;;;;32.20;60.91;98823.16;4399235;32;20115;-84
2023/08/01 09:09:13;;;;;;;0.10;0.10;;;;;;;32.27;60.90;98816.75;4424190;32;20117;-84
2023/08/01 09:11:44;;;;;;;0.28;0.28;;;;;;;32.31;60.90;98819.84;4424236;32;20129;-84
2023/08/01 09:14:09;;;;;;;0.10;0.10;;;;;;;32.35;60.90;98815.66;4424265;32;20464;-84
2023/08/01 09:16:35;;;;;;;0.00;0.00;;;;;;;32.43;60.91;98810.06;4398844;32;20101;-84
2023/08/01 09:19:00;;;;;;;0.57;0.50;;;;;;;32.29;60.91;98813.84;4398153;32;20148;-84
2023/08/01 09:21:26;;;;;;;2.22;0.47;;;;;;;32.13;60.90;98807.00;4411140;32;20192;-84
2023/08/01 09:23:51;;;;;;;0.10;0.10;;;;;;;32.39;60.91;98808.81;4397804;32;31412;-84
2023/08/01 09:26:18;;;;;;;0.10;0.10;;;;;;;32.41;60.91;98797.81;4411171;32;20233;-85
2023/08/01 09:28:43;;;;;;;0.20;0.08;;;;;;;32.48;60.91;98804.87;4398668;32;20109;-84
2023/08/01 09:31:10;;;;;;;0.08;0.08;;;;;;;32.67;60.92;98792.38;4410389;32;26456;-85
2023/08/01 09:33:41;;;;;;;1.23;1.08;;;;;;;32.61;60.93;98799.41;4398373;32;20219;-85
2023/08/01 09:36:08;;;;;;;0.05;0.05;;;;;;;32.69;60.93;98798.34;4398528;32;20086;-84
2023/08/01 09:38:37;;;;;;;1.75;1.25;;;;;;;32.71;60.93;98790.06;4398498;32;20423;-84
2023/08/01 09:41:03;;;;;;;4.47;0.20;;;;;;;32.70;60.93;98783.00;4398554;32;20128;-84
2023/08/01 09:43:38;;;;;;;0.22;0.22;;;;;;;32.84;60.94;98790.84;4425072;32;20094;-84
2023/08/01 09:46:06;;;;;;;0.00;0.00;;;;;;;33.01;60.94;98793.84;4411396;32;20094;-84
2023/08/01 09:48:31;;;;;;;0.17;0.17;;;;;;;32.88;60.93;98794.75;4424939;32;20114;-85
2023/08/01 09:51:10;;;;;;;0.85;0.52;;;;;;;32.76;60.93;98791.06;4411005;32;20121;-84
2023/08/01 09:53:36;;;;;;;0.25;0.25;;;;;;;32.83;60.93;98783.78;4411410;32;20129;-84
2023/08/01 09:56:02;;;;;;;0.00;0.00;;;;;;;32.77;60.94;98786.50;4398475;32;20542;-85
2023/08/01 09:58:33;;;;;;;0.20;0.20;;;;;;;32.86;60.94;98780.66;4398278;32;20094;-84
2023/08/01 10:00:59;;;;;;;0.20;0.20;;;;;;;32.99;60.95;98779.75;4398861;32;20157;-84
2023/08/01 10:03:26;;;;;;;1.35;0.40;;;;;;;32.95;60.94;98774.00;4423403;32;20450;-85
2023/08/01 10:05:54;;;;;;;2.05;0.22;;;;;;;33.09;60.95;98768.50;4410989;32;20097;-85
2023/08/01 10:08:19;;;;;;;0.00;0.00;;;;;;;33.26;60.96;98756.97;4386116;32;20534;-85
2023/08/01 10:10:45;;;;;;;3.15;0.45;;;;;;;33.15;60.95;98755.00;4410892;32;20169;-85
2023/08/01 10:13:10;;;;;;;0.30;0.13;;;;;;;33.31;60.95;98750.91;4398293;32;20101;-85
2023/08/01 10:15:36;;;;;;;0.00;0.00;;;;;;;33.24;60.96;98756.34;4397341;32;30260;-84
2023/08/01 10:18:01;;;;;;;0.25;0.25;;;;;;;33.06;60.94;98752.75;4398092;32;20170;-85
2023/08/01 10:20:27;;;;;;;0.37;0.37;;;;;;;32.91;60.95;98743.13;4424759;32;20477;-84
2023/08/01 10:22:52;;;;;;;0.10;0.10;;;;;;;32.98;60.94;98740.38;4424627;32;20094;-84
2023/08/01 10:25:18;;;;;;;0.10;0.10;;;;;;;32.99;60.94;98741.19;4409929;32;32189;-85
2023/08/01 10:27:43;;;;;;;0.17;0.17;;;;;;;32.96;60.94;98737.06;4398286;32;20540;-85
2023/08/01 10:30:09;;;;;;;0.28;0.22;;;;;;;33.01;60.95;98718.38;4424389;32;20779;-85
2023/08/01 10:32:39;;;;;;;4.85;0.90;;;;;;;33.16;60.96;98732.38;4423447;32;20085;-85
2023/08/01 10:35:05;;;;;;;0.00;0.00;;;;;;;33.30;60.96;98726.84;4424616;32;20089;-85
2023/08/01 10:37:43;;;;;;;6.60;1.02;;;;;;;33.34;60.97;98728.91;4404541;32;20164;-85
2023/08/01 10:40:08;;;;;;;0.10;0.10;;;;;;;33.44;60.96;98714.94;4436175;32;20268;-85
2023/08/01 10:42:38;;;;;;;0.00;0.00;;;;;;;33.60;60.98;98714.38;4424676;32;20098;-85
2023/08/01 10:45:04;;;;;;;3.00;1.40;;;;;;;33.50;60.97;98719.44;4436126;32;20155;-85
2023/08/01 10:47:30;;;;;;;0.00;0.00;;;;;;;33.56;60.98;98713.97;4424502;32;20114;-85
2023/08/01 10:49:56;;;;;;;2.30;0.75;;;;;;;33.56;60.98;98705.06;4424631;32;20184;-86
2023/08/01 10:52:28;;;;;;;0.17;0.17;;;;;;;33.61;60.97;98697.16;4423840;32;29912;-86
2023/08/01 10:55:01;;;;;;;0.08;0.08;;;;;;;33.67;60.98;98696.25;4435970;32;20090;-86
2023/08/01 10:57:30;;;;;;;0.55;0.37;;;;;;;33.69;60.97;98694.16;4423154;32;20105;-86
2023/08/01 10:59:56;;;;;;;0.40;0.40;;;;;;;33.68;60.98;98691.66;4423286;32;20137;-86
2023/08/01 11:02:23;;;;;;;0.00;0.00;;;;;;;33.70;60.98;98690.41;4436070;32;20168;-86
2023/08/01 11:05:02;;;;;;;0.20;0.20;;;;;;;33.63;60.97;98681.56;4423311;32;20116;-86
2023/08/01 11:07:28;;;;;;;0.03;0.03;;;;;;;33.67;60.98;98681.94;4424465;32;20105;-86
2023/08/01 11:10:02;;;;;;;0.15;0.15;;;;;;;33.63;60.97;98681.56;4424459;32;20547;-86
2023/08/01 11:12:27;;;;;;;0.88;0.47;;;;;;;33.64;60.99;98674.28;4424042;32;20158;-86
2023/08/01 11:14:53;;;;;;;0.30;0.30;;;;;;;33.68;60.98;98675.47;4435680;32;20155;-86
2023/08/01 11:17:18;;;;;;;0.15;0.15;;;;;;;33.69;60.98;98671.72;4422425;32;28083;-86
2023/08/01 11:19:43;;;;;;;0.37;0.22;;;;;;;33.86;60.99;98667.44;4435692;32;20106;-86
2023/08/01 11:22:09;;;;;;;0.00;0.00;;;;;;;33.85;60.99;98665.78;4423649;32;29809;-86
2023/08/01 11:24:35;;;;;;;0.57;0.17;;;;;;;34.08;61.00;98659.69;4423088;32;20107;-86
2023/08/01 11:27:00;;;;;;;0.47;0.37;;;;;;;33.93;61.00;98660.06;4435863;32;20118;-86
2023/08/01 11:29:25;;;;;;;0.10;0.10;;;;;;;34.01;60.99;98657.06;4422246;32;33552;-86